sensor_id;sensor_type;location;lat;lon;timestamp;temperature;humidity
8226;DHT22;4154;48.810;9.012;2022-10-16T00:01:36;15.50;99.90
8226;DHT22;4154;48.810;9.012;2022-10-16T00:07:44;15.50;99.90
8226;DHT22;4154;48.810;9.012;2022-10-16T00:12:35;15.50;99.90
8226;DHT22;4154;48.810;9.012;2022-10-16T00:15:01;15.50;99.90
8226;DHT22;4154;48.810;9.012;2022-10-16T00:17:28;15.50;99.90
8226;DHT22;4154;48.810;9.012;2022-10-16T00:19:54;15.50;99.90
8226;DHT22;4154;48.810;9.012;2022-10-16T00:22:22;15.60;99.90
8226;DHT22;4154;48.810;9.012;2022-10-16T00:24:48;15.60;99.90
8226;DHT22;4154;48.810;9.012;2022-10-16T00:29:40;15.50;99.90
8226;DHT22;4154;48.810;9.012;2022-10-16T00:34:32;15.50;99.90
8226;DHT22;4154;48.810;9.012;2022-10-16T00:39:24;15.50;99.90
8226;DHT22;4154;48.810;9.012;2022-10-16T00:41:50;15.50;99.90
8226;DHT22;4154;48.810;9.012;2022-10-16T00:47:39;15.20;99.90
8226;DHT22;4154;48.810;9.012;2022-10-16T00:50:11;15.50;99.90
8226;DHT22;4154;48.810;9.012;2022-10-16T00:52:44;15.50;99.90
8226;DHT22;4154;48.810;9.012;2022-10-16T00:55:13;15.40;99.90
8226;DHT22;4154;48.810;9.012;2022-10-16T00:57:39;15.50;99.90
8226;DHT22;4154;48.810;9.012;2022-10-16T01:00:10;15.50;99.90
8226;DHT22;4154;48.810;9.012;2022-10-16T01:02:37;15.40;99.90
8226;DHT22;4154;48.810;9.012;2022-10-16T01:05:04;15.50;99.90
8226;DHT22;4154;48.810;9.012;2022-10-16T01:10:27;15.50;99.90
8226;DHT22;4154;48.810;9.012;2022-10-16T01:13:51;15.50;99.90
8226;DHT22;4154;48.810;9.012;2022-10-16T01:19:17;15.50;99.90
8226;DHT22;4154;48.810;9.012;2022-10-16T01:21:53;15.60;99.90
8226;DHT22;4154;48.810;9.012;2022-10-16T01:24:32;15.50;99.90
8226;DHT22;4154;48.810;9.012;2022-10-16T01:27:25;15.50;99.90
8226;DHT22;4154;48.810;9.012;2022-10-16T01:30:05;15.50;99.90
8226;DHT22;4154;48.810;9.012;2022-10-16T01:33:02;15.50;99.90
8226;DHT22;4154;48.810;9.012;2022-10-16T01:35:41;15.50;99.90
8226;DHT22;4154;48.810;9.012;2022-10-16T01:38:34;15.50;99.90
8226;DHT22;4154;48.810;9.012;2022-10-16T01:41:24;15.40;99.90
8226;DHT22;4154;48.810;9.012;2022-10-16T01:44:04;15.70;99.90
8226;DHT22;4154;48.810;9.012;2022-10-16T01:46:38;15.50;99.90
8226;DHT22;4154;48.810;9.012;2022-10-16T01:49:08;15.40;99.90
8226;DHT22;4154;48.810;9.012;2022-10-16T01:51:37;15.50;99.90
8226;DHT22;4154;48.810;9.012;2022-10-16T01:54:05;15.50;99.90
8226;DHT22;4154;48.810;9.012;2022-10-16T01:56:34;15.50;99.90
8226;DHT22;4154;48.810;9.012;2022-10-16T01:59:07;15.50;99.90
8226;DHT22;4154;48.810;9.012;2022-10-16T02:01:39;15.50;99.90
8226;DHT22;4154;48.810;9.012;2022-10-16T02:04:15;15.50;99.90
8226;DHT22;4154;48.810;9.012;2022-10-16T02:06:44;15.50;99.90
8226;DHT22;4154;48.810;9.012;2022-10-16T02:09:10;15.40;99.90
8226;DHT22;4154;48.810;9.012;2022-10-16T02:11:39;15.40;99.90
8226;DHT22;4154;48.810;9.012;2022-10-16T02:14:06;15.50;99.90
8226;DHT22;4154;48.810;9.012;2022-10-16T02:16:41;15.50;99.90
8226;DHT22;4154;48.810;9.012;2022-10-16T02:19:09;15.40;99.90
8226;DHT22;4154;48.810;9.012;2022-10-16T02:30:27;15.50;99.90
8226;DHT22;4154;48.810;9.012;2022-10-16T02:33:00;15.50;99.90
8226;DHT22;4154;48.810;9.012;2022-10-16T02:35:29;15.50;99.90
8226;DHT22;4154;48.810;9.012;2022-10-16T02:37:57;15.50;99.90
8226;DHT22;4154;48.810;9.012;2022-10-16T02:40:24;15.50;99.90
8226;DHT22;4154;48.810;9.012;2022-10-16T02:42:53;15.50;99.90
8226;DHT22;4154;48.810;9.012;2022-10-16T02:45:20;15.50;99.90
8226;DHT22;4154;48.810;9.012;2022-10-16T02:47:47;15.50;99.90
8226;DHT22;4154;48.810;9.012;2022-10-16T02:50:14;15.50;99.90
8226;DHT22;4154;48.810;9.012;2022-10-16T02:55:06;15.50;99.90
8226;DHT22;4154;48.810;9.012;2022-10-16T02:57:32;15.50;99.90
8226;DHT22;4154;48.810;9.012;2022-10-16T03:02:25;15.50;99.90
8226;DHT22;4154;48.810;9.012;2022-10-16T03:07:16;15.50;99.90
8226;DHT22;4154;48.810;9.012;2022-10-16T03:12:08;15.50;99.90
8226;DHT22;4154;48.810;9.012;2022-10-16T03:17:00;15.50;99.90
8226;DHT22;4154;48.810;9.012;2022-10-16T03:21:52;15.50;99.90
8226;DHT22;4154;48.810;9.012;2022-10-16T03:26:44;15.50;99.90
8226;DHT22;4154;48.810;9.012;2022-10-16T03:31:36;15.50;99.90
8226;DHT22;4154;48.810;9.012;2022-10-16T03:36:28;15.40;99.90
8226;DHT22;4154;48.810;9.012;2022-10-16T03:41:20;15.50;99.90
8226;DHT22;4154;48.810;9.012;2022-10-16T03:43:46;15.60;99.90
8226;DHT22;4154;48.810;9.012;2022-10-16T03:48:38;15.50;99.90
8226;DHT22;4154;48.810;9.012;2022-10-16T03:51:05;15.70;99.90
8226;DHT22;4154;48.810;9.012;2022-10-16T03:55:57;15.40;99.90
8226;DHT22;4154;48.810;9.012;2022-10-16T03:58:26;15.40;99.90
8226;DHT22;4154;48.810;9.012;2022-10-16T04:00:52;15.40;99.90
8226;DHT22;4154;48.810;9.012;2022-10-16T04:05:44;15.40;99.90
8226;DHT22;4154;48.810;9.012;2022-10-16T04:10:39;15.40;99.90
8226;DHT22;4154;48.810;9.012;2022-10-16T04:16:05;15.40;99.90
8226;DHT22;4154;48.810;9.012;2022-10-16T04:18:31;15.40;99.90
8226;DHT22;4154;48.810;9.012;2022-10-16T04:23:27;15.40;99.90
8226;DHT22;4154;48.810;9.012;2022-10-16T04:28:20;15.40;99.90
8226;DHT22;4154;48.810;9.012;2022-10-16T04:33:12;15.40;99.90
8226;DHT22;4154;48.810;9.012;2022-10-16T04:35:38;15.40;99.90
8226;DHT22;4154;48.810;9.012;2022-10-16T04:40:30;15.40;99.90
8226;DHT22;4154;48.810;9.012;2022-10-16T04:46:42;15.40;99.90
8226;DHT22;4154;48.810;9.012;2022-10-16T04:49:09;15.40;99.90
8226;DHT22;4154;48.810;9.012;2022-10-16T04:54:01;15.40;99.90
8226;DHT22;4154;48.810;9.012;2022-10-16T04:58:53;15.50;99.90
8226;DHT22;4154;48.810;9.012;2022-10-16T05:03:45;15.20;99.90
8226;DHT22;4154;48.810;9.012;2022-10-16T05:08:37;15.50;99.90
8226;DHT22;4154;48.810;9.012;2022-10-16T05:13:29;15.40;99.90
8226;DHT22;4154;48.810;9.012;2022-10-16T05:18:22;15.40;99.90
8226;DHT22;4154;48.810;9.012;2022-10-16T05:20:48;15.40;99.90
8226;DHT22;4154;48.810;9.012;2022-10-16T05:25:40;15.40;99.90
8226;DHT22;4154;48.810;9.012;2022-10-16T05:28:06;15.40;99.90
8226;DHT22;4154;48.810;9.012;2022-10-16T05:32:58;15.40;99.90
8226;DHT22;4154;48.810;9.012;2022-10-16T05:37:49;15.30;99.90
8226;DHT22;4154;48.810;9.012;2022-10-16T05:42:42;15.30;99.90
8226;DHT22;4154;48.810;9.012;2022-10-16T05:45:10;15.30;99.90
8226;DHT22;4154;48.810;9.012;2022-10-16T05:47:37;15.30;99.90
8226;DHT22;4154;48.810;9.012;2022-10-16T05:50:03;15.20;99.90
8226;DHT22;4154;48.810;9.012;2022-10-16T05:52:29;15.20;99.90
8226;DHT22;4154;48.810;9.012;2022-10-16T05:57:21;15.30;99.90
8226;DHT22;4154;48.810;9.012;2022-10-16T06:02:14;15.30;99.90
8226;DHT22;4154;48.810;9.012;2022-10-16T06:04:40;15.30;99.90
8226;DHT22;4154;48.810;9.012;2022-10-16T06:07:07;15.30;99.90
8226;DHT22;4154;48.810;9.012;2022-10-16T06:09:33;15.30;99.90
8226;DHT22;4154;48.810;9.012;2022-10-16T06:11:59;15.30;99.90
8226;DHT22;4154;48.810;9.012;2022-10-16T06:16:51;15.30;99.90
8226;DHT22;4154;48.810;9.012;2022-10-16T06:21:43;15.30;99.90
8226;DHT22;4154;48.810;9.012;2022-10-16T06:27:50;15.30;99.90
8226;DHT22;4154;48.810;9.012;2022-10-16T06:30:16;15.20;99.90
8226;DHT22;4154;48.810;9.012;2022-10-16T06:35:08;15.20;99.90
8226;DHT22;4154;48.810;9.012;2022-10-16T06:37:34;15.20;99.90
8226;DHT22;4154;48.810;9.012;2022-10-16T06:42:26;15.30;99.90
8226;DHT22;4154;48.810;9.012;2022-10-16T06:44:52;15.30;99.90
8226;DHT22;4154;48.810;9.012;2022-10-16T06:47:18;15.20;99.90
8226;DHT22;4154;48.810;9.012;2022-10-16T06:52:10;15.30;99.90
8226;DHT22;4154;48.810;9.012;2022-10-16T06:57:02;15.40;99.90
8226;DHT22;4154;48.810;9.012;2022-10-16T07:01:54;15.40;99.90
8226;DHT22;4154;48.810;9.012;2022-10-16T07:06:46;15.40;99.90
8226;DHT22;4154;48.810;9.012;2022-10-16T07:11:39;15.50;99.90
8226;DHT22;4154;48.810;9.012;2022-10-16T07:14:18;15.50;99.90
8226;DHT22;4154;48.810;9.012;2022-10-16T07:16:46;15.50;99.90
8226;DHT22;4154;48.810;9.012;2022-10-16T07:19:13;15.50;99.90
8226;DHT22;4154;48.810;9.012;2022-10-16T07:21:41;15.50;99.90
8226;DHT22;4154;48.810;9.012;2022-10-16T07:24:11;15.60;99.90
8226;DHT22;4154;48.810;9.012;2022-10-16T07:26:40;15.50;99.90
8226;DHT22;4154;48.810;9.012;2022-10-16T07:29:13;15.60;99.90
8226;DHT22;4154;48.810;9.012;2022-10-16T07:31:41;15.60;99.90
8226;DHT22;4154;48.810;9.012;2022-10-16T07:34:29;15.60;99.90
8226;DHT22;4154;48.810;9.012;2022-10-16T07:36:55;15.60;99.90
8226;DHT22;4154;48.810;9.012;2022-10-16T07:39:21;15.60;99.90
8226;DHT22;4154;48.810;9.012;2022-10-16T07:44:13;15.60;99.90
8226;DHT22;4154;48.810;9.012;2022-10-16T07:46:41;15.70;99.90
8226;DHT22;4154;48.810;9.012;2022-10-16T07:51:33;15.70;99.90
8226;DHT22;4154;48.810;9.012;2022-10-16T07:56:25;15.80;99.90
8226;DHT22;4154;48.810;9.012;2022-10-16T08:01:18;15.90;99.90
8226;DHT22;4154;48.810;9.012;2022-10-16T08:03:46;16.50;99.90
8226;DHT22;4154;48.810;9.012;2022-10-16T08:06:13;16.00;99.90
8226;DHT22;4154;48.810;9.012;2022-10-16T08:08:40;16.10;99.90
8226;DHT22;4154;48.810;9.012;2022-10-16T08:17:02;16.30;99.90
8226;DHT22;4154;48.810;9.012;2022-10-16T08:19:29;16.30;99.90
8226;DHT22;4154;48.810;9.012;2022-10-16T08:21:56;16.40;99.90
8226;DHT22;4154;48.810;9.012;2022-10-16T08:24:22;16.40;99.90
8226;DHT22;4154;48.810;9.012;2022-10-16T08:29:14;16.50;99.90
8226;DHT22;4154;48.810;9.012;2022-10-16T08:34:11;16.60;99.90
8226;DHT22;4154;48.810;9.012;2022-10-16T08:36:37;16.70;99.90
8226;DHT22;4154;48.810;9.012;2022-10-16T08:39:03;16.70;99.90
8226;DHT22;4154;48.810;9.012;2022-10-16T08:47:34;16.80;99.90
8226;DHT22;4154;48.810;9.012;2022-10-16T08:50:13;16.90;99.90
8226;DHT22;4154;48.810;9.012;2022-10-16T08:52:50;16.90;99.90
8226;DHT22;4154;48.810;9.012;2022-10-16T08:58:21;17.00;99.90
8226;DHT22;4154;48.810;9.012;2022-10-16T09:00:53;17.00;99.90
8226;DHT22;4154;48.810;9.012;2022-10-16T09:03:35;17.00;99.90
8226;DHT22;4154;48.810;9.012;2022-10-16T09:11:57;17.00;99.90
8226;DHT22;4154;48.810;9.012;2022-10-16T09:20:19;17.10;99.90
8226;DHT22;4154;48.810;9.012;2022-10-16T09:23:42;17.10;99.90
8226;DHT22;4154;48.810;9.012;2022-10-16T09:26:13;17.10;99.90
8226;DHT22;4154;48.810;9.012;2022-10-16T09:28:41;17.10;99.90
8226;DHT22;4154;48.810;9.012;2022-10-16T09:31:20;17.10;99.90
8226;DHT22;4154;48.810;9.012;2022-10-16T09:33:52;17.00;99.90
8226;DHT22;4154;48.810;9.012;2022-10-16T09:36:21;17.20;99.90
8226;DHT22;4154;48.810;9.012;2022-10-16T09:39:02;17.20;99.90
8226;DHT22;4154;48.810;9.012;2022-10-16T09:41:30;17.20;99.90
8226;DHT22;4154;48.810;9.012;2022-10-16T09:44:02;17.20;99.90
8226;DHT22;4154;48.810;9.012;2022-10-16T09:46:36;17.30;99.90
8226;DHT22;4154;48.810;9.012;2022-10-16T09:49:22;17.30;99.90
8226;DHT22;4154;48.810;9.012;2022-10-16T09:51:50;17.40;99.90
8226;DHT22;4154;48.810;9.012;2022-10-16T09:54:27;17.40;99.90
8226;DHT22;4154;48.810;9.012;2022-10-16T09:57:07;17.50;99.90
8226;DHT22;4154;48.810;9.012;2022-10-16T09:59:46;17.50;99.90
8226;DHT22;4154;48.810;9.012;2022-10-16T10:02:16;17.60;99.90
8226;DHT22;4154;48.810;9.012;2022-10-16T10:04:52;17.60;99.90
8226;DHT22;4154;48.810;9.012;2022-10-16T10:07:27;17.70;99.90
8226;DHT22;4154;48.810;9.012;2022-10-16T10:10:01;17.80;99.90
8226;DHT22;4154;48.810;9.012;2022-10-16T10:12:31;17.80;99.90
8226;DHT22;4154;48.810;9.012;2022-10-16T10:15:20;17.90;99.90
8226;DHT22;4154;48.810;9.012;2022-10-16T10:17:53;18.00;99.90
8226;DHT22;4154;48.810;9.012;2022-10-16T10:20:36;18.10;99.90
8226;DHT22;4154;48.810;9.012;2022-10-16T10:23:21;18.10;99.90
8226;DHT22;4154;48.810;9.012;2022-10-16T10:26:15;18.20;99.90
8226;DHT22;4154;48.810;9.012;2022-10-16T10:28:55;18.30;99.90
8226;DHT22;4154;48.810;9.012;2022-10-16T10:35:15;18.40;99.90
8226;DHT22;4154;48.810;9.012;2022-10-16T10:41:03;18.50;99.90
8226;DHT22;4154;48.810;9.012;2022-10-16T10:50:06;18.70;99.90
8226;DHT22;4154;48.810;9.012;2022-10-16T11:07:51;19.00;99.90
8226;DHT22;4154;48.810;9.012;2022-10-16T11:10:28;19.00;99.90
8226;DHT22;4154;48.810;9.012;2022-10-16T11:16:21;19.40;99.90
8226;DHT22;4154;48.810;9.012;2022-10-16T11:19:14;19.20;99.90
8226;DHT22;4154;48.810;9.012;2022-10-16T11:21:47;19.20;99.90
8226;DHT22;4154;48.810;9.012;2022-10-16T11:24:42;19.30;99.90
8226;DHT22;4154;48.810;9.012;2022-10-16T11:27:17;19.40;99.90
8226;DHT22;4154;48.810;9.012;2022-10-16T11:29:59;19.40;99.90
8226;DHT22;4154;48.810;9.012;2022-10-16T11:32:33;19.50;99.90
8226;DHT22;4154;48.810;9.012;2022-10-16T11:35:19;19.50;99.90
8226;DHT22;4154;48.810;9.012;2022-10-16T11:37:52;19.60;99.90
8226;DHT22;4154;48.810;9.012;2022-10-16T11:40:38;19.60;99.90
8226;DHT22;4154;48.810;9.012;2022-10-16T11:43:28;19.60;99.90
8226;DHT22;4154;48.810;9.012;2022-10-16T11:46:08;19.70;99.90
8226;DHT22;4154;48.810;9.012;2022-10-16T11:56:30;20.00;99.90
8226;DHT22;4154;48.810;9.012;2022-10-16T12:01:41;20.10;99.90
8226;DHT22;4154;48.810;9.012;2022-10-16T12:07:14;20.20;99.90
8226;DHT22;4154;48.810;9.012;2022-10-16T12:09:47;20.20;99.90
8226;DHT22;4154;48.810;9.012;2022-10-16T12:12:36;20.20;99.90
8226;DHT22;4154;48.810;9.012;2022-10-16T12:15:21;20.20;99.90
8226;DHT22;4154;48.810;9.012;2022-10-16T12:17:52;20.20;99.90
8226;DHT22;4154;48.810;9.012;2022-10-16T12:20:27;20.20;99.90
8226;DHT22;4154;48.810;9.012;2022-10-16T12:23:02;20.20;99.90
8226;DHT22;4154;48.810;9.012;2022-10-16T12:25:35;20.20;99.90
8226;DHT22;4154;48.810;9.012;2022-10-16T12:28:06;20.30;99.90
8226;DHT22;4154;48.810;9.012;2022-10-16T12:30:55;20.30;99.90
8226;DHT22;4154;48.810;9.012;2022-10-16T12:36:04;20.40;99.90
8226;DHT22;4154;48.810;9.012;2022-10-16T12:38:49;20.40;99.90
8226;DHT22;4154;48.810;9.012;2022-10-16T12:41:37;20.50;99.90
8226;DHT22;4154;48.810;9.012;2022-10-16T12:44:23;20.50;99.90
8226;DHT22;4154;48.810;9.012;2022-10-16T12:46:51;20.50;99.90
8226;DHT22;4154;48.810;9.012;2022-10-16T12:49:48;20.50;99.90
8226;DHT22;4154;48.810;9.012;2022-10-16T12:52:26;20.60;99.90
8226;DHT22;4154;48.810;9.012;2022-10-16T12:54:56;20.60;99.90
8226;DHT22;4154;48.810;9.012;2022-10-16T13:00:28;20.60;99.90
8226;DHT22;4154;48.810;9.012;2022-10-16T13:06:27;20.70;99.90
8226;DHT22;4154;48.810;9.012;2022-10-16T13:18:00;20.90;99.90
8226;DHT22;4154;48.810;9.012;2022-10-16T13:20:46;20.80;99.90
8226;DHT22;4154;48.810;9.012;2022-10-16T13:23:27;20.80;99.90
8226;DHT22;4154;48.810;9.012;2022-10-16T13:26:34;20.80;99.90
8226;DHT22;4154;48.810;9.012;2022-10-16T13:31:43;20.80;99.90
8226;DHT22;4154;48.810;9.012;2022-10-16T13:34:15;20.80;99.90
8226;DHT22;4154;48.810;9.012;2022-10-16T13:36:47;20.80;99.90
8226;DHT22;4154;48.810;9.012;2022-10-16T13:39:25;20.80;99.90
8226;DHT22;4154;48.810;9.012;2022-10-16T13:42:03;20.80;99.90
8226;DHT22;4154;48.810;9.012;2022-10-16T13:44:39;20.80;99.90
8226;DHT22;4154;48.810;9.012;2022-10-16T13:47:20;20.90;99.90
8226;DHT22;4154;48.810;9.012;2022-10-16T13:50:06;20.90;99.90
8226;DHT22;4154;48.810;9.012;2022-10-16T13:52:37;20.90;99.90
8226;DHT22;4154;48.810;9.012;2022-10-16T13:55:14;20.90;99.90
8226;DHT22;4154;48.810;9.012;2022-10-16T13:57:43;20.90;99.90
8226;DHT22;4154;48.810;9.012;2022-10-16T14:00:24;20.90;99.90
8226;DHT22;4154;48.810;9.012;2022-10-16T14:03:06;20.90;99.90
8226;DHT22;4154;48.810;9.012;2022-10-16T14:06:06;20.90;99.90
8226;DHT22;4154;48.810;9.012;2022-10-16T14:08:36;20.80;99.90
8226;DHT22;4154;48.810;9.012;2022-10-16T14:11:02;20.80;99.90
8226;DHT22;4154;48.810;9.012;2022-10-16T14:13:45;20.80;99.90
8226;DHT22;4154;48.810;9.012;2022-10-16T14:16:21;20.80;99.90
8226;DHT22;4154;48.810;9.012;2022-10-16T14:18:58;20.90;99.90
8226;DHT22;4154;48.810;9.012;2022-10-16T14:21:27;20.90;99.90
8226;DHT22;4154;48.810;9.012;2022-10-16T14:23:53;20.90;99.90
8226;DHT22;4154;48.810;9.012;2022-10-16T14:26:25;20.80;99.90
8226;DHT22;4154;48.810;9.012;2022-10-16T14:29:13;20.80;99.90
8226;DHT22;4154;48.810;9.012;2022-10-16T14:31:41;20.70;99.90
8226;DHT22;4154;48.810;9.012;2022-10-16T14:34:34;21.10;99.90
8226;DHT22;4154;48.810;9.012;2022-10-16T14:37:09;20.70;99.90
8226;DHT22;4154;48.810;9.012;2022-10-16T14:39:49;20.70;99.90
8226;DHT22;4154;48.810;9.012;2022-10-16T14:42:21;20.60;99.90
8226;DHT22;4154;48.810;9.012;2022-10-16T14:44:55;20.70;99.90
8226;DHT22;4154;48.810;9.012;2022-10-16T14:47:24;20.70;99.90
8226;DHT22;4154;48.810;9.012;2022-10-16T14:49:52;20.70;99.90
8226;DHT22;4154;48.810;9.012;2022-10-16T14:52:24;20.60;99.90
8226;DHT22;4154;48.810;9.012;2022-10-16T14:54:50;20.60;99.90
8226;DHT22;4154;48.810;9.012;2022-10-16T14:57:23;20.60;99.90
8226;DHT22;4154;48.810;9.012;2022-10-16T14:59:51;20.60;99.90
8226;DHT22;4154;48.810;9.012;2022-10-16T15:02:31;20.70;99.90
8226;DHT22;4154;48.810;9.012;2022-10-16T15:05:23;20.50;99.90
8226;DHT22;4154;48.810;9.012;2022-10-16T15:07:52;20.30;99.90
8226;DHT22;4154;48.810;9.012;2022-10-16T15:10:25;20.40;99.90
8226;DHT22;4154;48.810;9.012;2022-10-16T15:12:52;20.40;99.90
8226;DHT22;4154;48.810;9.012;2022-10-16T15:18:02;20.30;99.90
8226;DHT22;4154;48.810;9.012;2022-10-16T15:20:34;20.30;99.90
8226;DHT22;4154;48.810;9.012;2022-10-16T15:23:03;20.20;99.90
8226;DHT22;4154;48.810;9.012;2022-10-16T15:25:47;20.20;99.90
8226;DHT22;4154;48.810;9.012;2022-10-16T15:28:22;20.20;99.90
8226;DHT22;4154;48.810;9.012;2022-10-16T15:30:51;20.20;99.90
8226;DHT22;4154;48.810;9.012;2022-10-16T15:33:20;20.10;99.90
8226;DHT22;4154;48.810;9.012;2022-10-16T15:35:53;20.10;99.90
8226;DHT22;4154;48.810;9.012;2022-10-16T15:38:21;20.10;99.90
8226;DHT22;4154;48.810;9.012;2022-10-16T15:40:48;20.10;99.90
8226;DHT22;4154;48.810;9.012;2022-10-16T15:43:15;20.10;99.90
8226;DHT22;4154;48.810;9.012;2022-10-16T15:45:41;20.20;99.90
8226;DHT22;4154;48.810;9.012;2022-10-16T15:48:12;20.00;99.90
8226;DHT22;4154;48.810;9.012;2022-10-16T15:50:39;20.00;99.90
8226;DHT22;4154;48.810;9.012;2022-10-16T15:53:05;20.00;99.90
8226;DHT22;4154;48.810;9.012;2022-10-16T15:55:31;19.90;99.90
8226;DHT22;4154;48.810;9.012;2022-10-16T15:57:58;19.90;99.90
8226;DHT22;4154;48.810;9.012;2022-10-16T16:03:20;19.90;99.90
8226;DHT22;4154;48.810;9.012;2022-10-16T16:05:46;19.80;99.90
8226;DHT22;4154;48.810;9.012;2022-10-16T16:10:38;19.70;99.90
8226;DHT22;4154;48.810;9.012;2022-10-16T16:13:04;19.60;99.90
8226;DHT22;4154;48.810;9.012;2022-10-16T16:17:56;19.60;99.90
8226;DHT22;4154;48.810;9.012;2022-10-16T16:22:50;19.40;99.90
8226;DHT22;4154;48.810;9.012;2022-10-16T16:25:17;19.40;99.90
8226;DHT22;4154;48.810;9.012;2022-10-16T16:27:42;19.30;99.90
8226;DHT22;4154;48.810;9.012;2022-10-16T16:30:10;19.30;99.90
8226;DHT22;4154;48.810;9.012;2022-10-16T16:32:36;19.20;99.90
8226;DHT22;4154;48.810;9.012;2022-10-16T16:35:03;19.20;99.90
8226;DHT22;4154;48.810;9.012;2022-10-16T16:37:30;19.20;99.90
8226;DHT22;4154;48.810;9.012;2022-10-16T16:39:56;19.10;99.90
8226;DHT22;4154;48.810;9.012;2022-10-16T16:42:27;19.00;99.90
8226;DHT22;4154;48.810;9.012;2022-10-16T16:44:53;19.00;99.90
8226;DHT22;4154;48.810;9.012;2022-10-16T16:47:20;19.00;99.90
8226;DHT22;4154;48.810;9.012;2022-10-16T16:49:46;18.90;99.90
8226;DHT22;4154;48.810;9.012;2022-10-16T16:52:14;18.90;99.90
8226;DHT22;4154;48.810;9.012;2022-10-16T16:54:41;18.90;99.90
8226;DHT22;4154;48.810;9.012;2022-10-16T16:59:33;18.80;99.90
8226;DHT22;4154;48.810;9.012;2022-10-16T17:04:26;18.90;99.90
8226;DHT22;4154;48.810;9.012;2022-10-16T17:06:53;18.80;99.90
8226;DHT22;4154;48.810;9.012;2022-10-16T17:09:20;18.80;99.90
8226;DHT22;4154;48.810;9.012;2022-10-16T17:11:46;18.70;99.90
8226;DHT22;4154;48.810;9.012;2022-10-16T17:14:14;18.70;99.90
8226;DHT22;4154;48.810;9.012;2022-10-16T17:16:41;18.70;99.90
8226;DHT22;4154;48.810;9.012;2022-10-16T17:19:13;18.60;99.90
8226;DHT22;4154;48.810;9.012;2022-10-16T17:21:42;18.60;99.90
8226;DHT22;4154;48.810;9.012;2022-10-16T17:24:09;18.60;99.90
8226;DHT22;4154;48.810;9.012;2022-10-16T17:26:35;18.60;99.90
8226;DHT22;4154;48.810;9.012;2022-10-16T17:29:03;18.60;99.90
8226;DHT22;4154;48.810;9.012;2022-10-16T17:31:33;18.60;99.90
8226;DHT22;4154;48.810;9.012;2022-10-16T17:34:03;18.60;99.90
8226;DHT22;4154;48.810;9.012;2022-10-16T17:36:33;18.50;99.90
8226;DHT22;4154;48.810;9.012;2022-10-16T17:39:03;18.50;99.90
8226;DHT22;4154;48.810;9.012;2022-10-16T17:41:32;18.50;99.90
8226;DHT22;4154;48.810;9.012;2022-10-16T17:43:59;18.40;99.90
8226;DHT22;4154;48.810;9.012;2022-10-16T17:46:25;18.40;99.90
8226;DHT22;4154;48.810;9.012;2022-10-16T17:48:52;18.30;99.90
8226;DHT22;4154;48.810;9.012;2022-10-16T17:51:22;18.30;99.90
8226;DHT22;4154;48.810;9.012;2022-10-16T17:53:55;18.00;99.90
8226;DHT22;4154;48.810;9.012;2022-10-16T17:56:23;18.20;99.90
8226;DHT22;4154;48.810;9.012;2022-10-16T17:58:52;18.20;99.90
8226;DHT22;4154;48.810;9.012;2022-10-16T18:01:26;18.20;99.90
8226;DHT22;4154;48.810;9.012;2022-10-16T18:04:13;18.10;99.90
8226;DHT22;4154;48.810;9.012;2022-10-16T18:06:41;18.10;99.90
8226;DHT22;4154;48.810;9.012;2022-10-16T18:09:09;18.00;99.90
8226;DHT22;4154;48.810;9.012;2022-10-16T18:11:37;18.00;99.90
8226;DHT22;4154;48.810;9.012;2022-10-16T18:14:03;17.90;99.90
8226;DHT22;4154;48.810;9.012;2022-10-16T18:16:30;17.90;99.90
8226;DHT22;4154;48.810;9.012;2022-10-16T18:18:58;17.90;99.90
8226;DHT22;4154;48.810;9.012;2022-10-16T18:21:25;17.90;99.90
8226;DHT22;4154;48.810;9.012;2022-10-16T18:24:00;17.90;99.90
8226;DHT22;4154;48.810;9.012;2022-10-16T18:26:26;17.80;99.90
8226;DHT22;4154;48.810;9.012;2022-10-16T18:28:55;17.80;99.90
8226;DHT22;4154;48.810;9.012;2022-10-16T18:31:22;17.70;99.90
8226;DHT22;4154;48.810;9.012;2022-10-16T18:33:50;17.40;99.90
8226;DHT22;4154;48.810;9.012;2022-10-16T18:36:19;17.60;99.90
8226;DHT22;4154;48.810;9.012;2022-10-16T18:38:47;17.50;99.90
8226;DHT22;4154;48.810;9.012;2022-10-16T18:41:13;17.50;99.90
8226;DHT22;4154;48.810;9.012;2022-10-16T18:43:39;17.70;99.90
8226;DHT22;4154;48.810;9.012;2022-10-16T18:46:14;17.40;99.90
8226;DHT22;4154;48.810;9.012;2022-10-16T18:48:42;17.40;99.90
8226;DHT22;4154;48.810;9.012;2022-10-16T18:51:10;17.30;99.90
8226;DHT22;4154;48.810;9.012;2022-10-16T18:53:41;17.00;99.90
8226;DHT22;4154;48.810;9.012;2022-10-16T18:56:09;17.30;99.90
8226;DHT22;4154;48.810;9.012;2022-10-16T18:58:37;17.30;99.90
8226;DHT22;4154;48.810;9.012;2022-10-16T19:01:07;17.20;99.90
8226;DHT22;4154;48.810;9.012;2022-10-16T19:03:34;17.30;99.90
8226;DHT22;4154;48.810;9.012;2022-10-16T19:06:06;17.10;99.90
8226;DHT22;4154;48.810;9.012;2022-10-16T19:08:38;17.10;99.90
8226;DHT22;4154;48.810;9.012;2022-10-16T19:11:06;17.10;99.90
8226;DHT22;4154;48.810;9.012;2022-10-16T19:13:34;16.70;99.90
8226;DHT22;4154;48.810;9.012;2022-10-16T19:16:01;17.00;99.90
8226;DHT22;4154;48.810;9.012;2022-10-16T19:18:29;16.90;99.90
8226;DHT22;4154;48.810;9.012;2022-10-16T19:21:04;16.80;99.90
8226;DHT22;4154;48.810;9.012;2022-10-16T19:27:12;16.80;99.90
8226;DHT22;4154;48.810;9.012;2022-10-16T19:32:04;16.70;99.90
8226;DHT22;4154;48.810;9.012;2022-10-16T19:34:30;16.70;99.90
8226;DHT22;4154;48.810;9.012;2022-10-16T19:39:22;16.60;99.90
8226;DHT22;4154;48.810;9.012;2022-10-16T19:41:49;16.60;99.90
8226;DHT22;4154;48.810;9.012;2022-10-16T19:44:16;16.60;99.90
8226;DHT22;4154;48.810;9.012;2022-10-16T19:46:43;16.60;99.90
8226;DHT22;4154;48.810;9.012;2022-10-16T19:49:16;16.60;99.90
8226;DHT22;4154;48.810;9.012;2022-10-16T19:51:47;16.60;99.90
8226;DHT22;4154;48.810;9.012;2022-10-16T19:54:14;16.60;99.90
8226;DHT22;4154;48.810;9.012;2022-10-16T19:56:41;16.60;99.90
8226;DHT22;4154;48.810;9.012;2022-10-16T19:59:09;16.60;99.90
8226;DHT22;4154;48.810;9.012;2022-10-16T20:01:44;16.60;99.90
8226;DHT22;4154;48.810;9.012;2022-10-16T20:07:55;16.70;99.90
8226;DHT22;4154;48.810;9.012;2022-10-16T20:12:51;16.70;99.90
8226;DHT22;4154;48.810;9.012;2022-10-16T20:15:20;16.70;99.90
8226;DHT22;4154;48.810;9.012;2022-10-16T20:17:48;16.80;99.90
8226;DHT22;4154;48.810;9.012;2022-10-16T20:20:14;16.80;99.90
8226;DHT22;4154;48.810;9.012;2022-10-16T20:22:40;16.80;99.90
8226;DHT22;4154;48.810;9.012;2022-10-16T20:25:06;16.80;99.90
8226;DHT22;4154;48.810;9.012;2022-10-16T20:29:58;16.90;99.90
8226;DHT22;4154;48.810;9.012;2022-10-16T20:32:24;16.90;99.90
8226;DHT22;4154;48.810;9.012;2022-10-16T20:34:50;16.80;99.90
8226;DHT22;4154;48.810;9.012;2022-10-16T20:37:16;16.90;99.90
8226;DHT22;4154;48.810;9.012;2022-10-16T20:39:42;16.80;99.90
8226;DHT22;4154;48.810;9.012;2022-10-16T20:42:10;16.90;99.90
8226;DHT22;4154;48.810;9.012;2022-10-16T20:44:36;16.80;99.90
8226;DHT22;4154;48.810;9.012;2022-10-16T20:47:02;16.80;99.90
8226;DHT22;4154;48.810;9.012;2022-10-16T20:51:54;16.80;99.90
8226;DHT22;4154;48.810;9.012;2022-10-16T20:54:20;16.80;99.90
8226;DHT22;4154;48.810;9.012;2022-10-16T20:56:46;16.80;99.90
8226;DHT22;4154;48.810;9.012;2022-10-16T21:01:39;16.80;99.90
8226;DHT22;4154;48.810;9.012;2022-10-16T21:04:08;16.80;99.90
8226;DHT22;4154;48.810;9.012;2022-10-16T21:06:37;16.80;99.90
8226;DHT22;4154;48.810;9.012;2022-10-16T21:09:04;16.70;99.90
8226;DHT22;4154;48.810;9.012;2022-10-16T21:11:33;16.70;99.90